Lester B. Pearson International Airport
CYYZ : now visible

Airfield :











YOU CAN JOIN US ON...

 
LOGIN :

Register | Disclaimer

   EN    FR    IT 

 









Legend :    VFR   Marginal VFR   IFR   Intensive IFR   Very Intensive IFR
Visi :
Ceiling :
>= 8 km
>= 3000ft
5 to 8 km
1000 to 3000 ft
1500m to 5 km
500 to 1000 ft
800 to 1500m
200 to 500 ft
< 800m
< 200 ft
Symbols :   Thunderstorms  Fog  Heavy snow  Heavy precipitations  Wind > 20 kt






- Airport Elevation : 569 ft
- IATA code : YYZ


CYYZ - Lester B. Pearson International

CURRENT METAR :
  • 280400Z 00000KT 15SM FEW260 21/15 A3002 RMK CI2 SLP166 DENSITY ALT 1300FT

EXPIRED METARs :
  • 280300Z 16003KT 15SM SKC 21/15 A3003 RMK SLP168 DENSITY ALT 1400FT
  • 280200Z 14006KT 15SM FEW260 21/15 A3003 RMK CI1 SLP167 DENSITY ALT 1400FT

TAF TAF CYYZ
Valid from the 28 at 03:00 until the 29 at 06:00 UTC


280238Z 2803/2906 14008KT P6SM FEW260
FM280900 13008KT P6SM SCT060 BKN150 OVC220
TEMPO 2809/2814 P6SM VCSH BKN050 OVC120
FM281400 16008KT P6SM BKN050 OVC120
TEMPO 2814/2818 P6SM -SHRA
FM281800 12008KT P6SM -SHRA SCT012 OVC025
TEMPO 2818/2906 4SM -SHRA BR OVC012
BECMG 2900/2902 18010KT RMK NXT FCST BY 280600Z
CZYZ FIR / North America



MET'MAP, your aeronautical weather chart ! - Copyright ORBIFLY December 2007 - Disclaimer

ORBIFLY MET'MAP TEAM :

Programming & Development : Alexandra Zaïnal
Concept & original design : Baudouin d'Aumeries
Assistance for programming : Marc-Olivier Méhu
Technical & hardware support : Manuel Goepfert

Contact : metmap@orbifly.com




SOURCES & CREDITS :

   NOAA       Earth
Advisory